METAR AND TAF INFORMATION
METAR FOR LFMT
ADDS - METARS form results

(1609 UTC 02 December 2020)
Data provider http://aviationweather.gov/metar/data/
 
METAR text: LFMT 021600Z AUTO 34014KT CAVOK 12/M01 Q1011 NOSIG
Conditions at: LFMT (FREJORGUES/MONTP, FR) observed 1600 UTC 02 December 2020
Temperature: 12.0°C (54°F)
Dewpoint: -1.0°C (30°F) [RH = 40%]
Pressure (altimeter): 29.85 inches Hg (1011.0 mb)
Winds: from the NNW (340 degrees) at 16 MPH (14 knots; 7.2 m/s)
Visibility: 6 or more miles (10+ km)
Ceiling: ceiling and visibility are OK
Clouds: unknown
Weather: no significant weather observed at this time

METAR text: LFMT 021530Z AUTO 32009KT CAVOK 12/01 Q1011 NOSIG
Conditions at: LFMT (FREJORGUES/MONTP, FR) observed 1530 UTC 02 December 2020
Temperature: 12.0°C (54°F)
Dewpoint: 1.0°C (34°F) [RH = 47%]
Pressure (altimeter): 29.85 inches Hg (1011.0 mb)
Winds: from the NW (320 degrees) at 10 MPH (9 knots; 4.6 m/s)
Visibility: 6 or more miles (10+ km)
Ceiling: ceiling and visibility are OK
Clouds: unknown
Weather: no significant weather observed at this time

Forecast for: LFMT (FREJORGUES/MONTP, FR)
Text: TAF LFMT 021400Z 0215/0315 33012KT CAVOK
Forecast period: 1500 UTC 02 December 2020 to 0500 UTC 03 December 2020
Forecast type: FROM: standard forecast or significant change
Winds: from the NNW (330 degrees) at 14 MPH (12 knots; 6.2 m/s)
Visibility: 6 or more miles (10+ km)
Ceiling: unknown
Clouds: missing
Weather: NSW  (no significant weather)
Text: BECMG 0305/0307 26006KT
Forecast period: 0500 to 1500 UTC 03 December 2020
Forecast type: BECOMING: Conditions expected to become as follows by 0700 UTC 03 December 2020
Winds: from the W (260 degrees) at 7 MPH (6 knots; 3.1 m/s)
Visibility: 6 or more miles (10+ km)
Ceiling: unknown
Clouds: missing
Weather: NSW  (no significant weather)

 AIRPORT MAP

 RUNWAY INFORMATION
Runway 12L Runway length 8530 ft Runway width 164 ft
Runway elevation 17 ft Runway displaced threshold 0 ft Runway heading 124
Runway 30R Runway length 8530 ft Runway width 164 ft
Runway elevation 6 ft Runway displaced threshold 0 ft Runway heading 304
Runway 12R Runway length 3609 ft Runway width 98 ft
Runway elevation 10 ft Runway displaced threshold 328 ft Runway heading 124
Runway 30L Runway length 3609 ft Runway width 98 ft
Runway elevation 7 ft Runway displaced threshold 0 ft Runway heading 304

 AIRPORT FREQUENCIES
Type APP Name MONTPELLIE Frequency 120.375 MHZ
Type ATIS Name MONTPELLIE Frequency 124.125 MHZ
Type GND Name MONTPELLIE Frequency 121.95 MHZ
Type TWR Name MONTPELLIE Frequency 118.2 MHZ
Type TWR Name MONTPELLIE Frequency 118.775 MHZ

 AIRPORT NEAR NAVIGATION AIDS
Type VOR-DME Name Mediterranee Frequency 114450 KHZ



Powered by Virtual Airlines Manager [v2.6.2]